Time;durP1;ratioP1;P1;durP2;ratioP2;P2;SDS_P1;SDS_P2;PMS_P1;PMS_P2;Temp;Humidity;BMP_temperature;BMP_pressure;BME280_temperature;BME280_humidity;BME280_pressure;Samples;Min_cycle;Max_cycle;Signal;HPM_P1;HPM_P2
2024/01/13 00:01:18;;;;;;;11.77;7.30;;;;;;;;;;5030808;28;20190;-75
2024/01/13 00:03:44;;;;;;;11.93;6.50;;;;;;;;;;5041411;28;20220;-75
2024/01/13 00:06:09;;;;;;;14.37;6.77;;;;;;;;;;5043653;28;20215;-75
2024/01/13 00:08:34;;;;;;;12.23;6.93;;;;;;;;;;5042149;28;20625;-75
2024/01/13 00:11:00;;;;;;;12.63;6.97;;;;;;;;;;5040618;28;20190;-75
2024/01/13 00:13:25;;;;;;;12.40;6.97;;;;;;;;;;5026341;28;20198;-75
2024/01/13 00:15:51;;;;;;;11.47;6.70;;;;;;;;;;5035211;28;20234;-75
2024/01/13 00:18:18;;;;;;;12.53;7.23;;;;;;;;;;5041302;28;20220;-75
2024/01/13 00:20:44;;;;;;;14.93;8.20;;;;;;;;;;5047375;28;20323;-75
2024/01/13 00:23:09;;;;;;;13.87;7.43;;;;;;;;;;5050245;28;20700;-75
2024/01/13 00:25:35;;;;;;;11.93;7.37;;;;;;;;;;5046819;28;20248;-75
2024/01/13 00:28:01;;;;;;;16.53;8.53;;;;;;;;;;5040380;28;20247;-75
2024/01/13 00:30:26;;;;;;;16.70;7.87;;;;;;;;;;5046578;28;20281;-75
2024/01/13 00:32:52;;;;;;;17.33;8.17;;;;;;;;;;5021823;28;20213;-75
2024/01/13 00:35:17;;;;;;;15.17;8.30;;;;;;;;;;5030406;28;20673;-75
2024/01/13 00:37:44;;;;;;;13.43;7.43;;;;;;;;;;5033734;28;20182;-75
2024/01/13 00:40:11;;;;;;;14.07;7.87;;;;;;;;;;5045898;28;20182;-75
2024/01/13 00:42:36;;;;;;;11.93;6.77;;;;;;;;;;5040408;28;20192;-75
2024/01/13 00:45:02;;;;;;;16.40;8.20;;;;;;;;;;5045015;28;20197;-75
2024/01/13 00:47:27;;;;;;;13.97;7.67;;;;;;;;;;5031960;28;20213;-75
2024/01/13 00:49:52;;;;;;;11.80;7.37;;;;;;;;;;5042615;28;20185;-75
2024/01/13 00:52:18;;;;;;;11.33;7.17;;;;;;;;;;5042735;28;20269;-75
2024/01/13 00:54:44;;;;;;;10.43;7.00;;;;;;;;;;5034383;28;20201;-75
2024/01/13 00:57:10;;;;;;;12.77;6.93;;;;;;;;;;5040321;28;20213;-75
2024/01/13 00:59:35;;;;;;;13.50;7.53;;;;;;;;;;5048061;28;20688;-75
2024/01/13 01:02:00;;;;;;;13.50;6.80;;;;;;;;;;5040342;28;20883;-75
2024/01/13 01:04:26;;;;;;;13.10;7.20;;;;;;;;;;5051806;28;20261;-76
2024/01/13 01:06:51;;;;;;;12.60;7.17;;;;;;;;;;5038773;28;20209;-75
2024/01/13 01:09:17;;;;;;;11.80;6.70;;;;;;;;;;5040742;28;20233;-74
2024/01/13 01:11:42;;;;;;;14.83;6.57;;;;;;;;;;5042597;28;20182;-74
2024/01/13 01:14:08;;;;;;;11.03;6.37;;;;;;;;;;5036145;28;20270;-74
2024/01/13 01:16:34;;;;;;;11.40;6.23;;;;;;;;;;5030581;28;20204;-74
2024/01/13 01:18:59;;;;;;;11.93;6.10;;;;;;;;;;5045571;28;20274;-74
2024/01/13 01:21:24;;;;;;;12.60;6.50;;;;;;;;;;5044745;28;20330;-74
2024/01/13 01:23:50;;;;;;;11.17;6.03;;;;;;;;;;5031226;28;20193;-74
2024/01/13 01:26:16;;;;;;;11.23;6.37;;;;;;;;;;5041987;28;20653;-74
2024/01/13 01:28:41;;;;;;;11.27;6.20;;;;;;;;;;5028554;28;20174;-74
2024/01/13 01:31:07;;;;;;;10.30;6.33;;;;;;;;;;5035664;28;20188;-74
2024/01/13 01:33:33;;;;;;;11.90;6.00;;;;;;;;;;5042048;28;20186;-74
2024/01/13 01:35:58;;;;;;;11.23;6.43;;;;;;;;;;5030540;28;20205;-74
2024/01/13 01:38:23;;;;;;;13.77;6.70;;;;;;;;;;5038721;28;20535;-74
2024/01/13 01:40:53;;;;;;;13.10;6.37;;;;;;;;;;5030190;28;20587;-74
2024/01/13 01:43:19;;;;;;;10.53;6.13;;;;;;;;;;5045038;28;20204;-74
2024/01/13 01:45:47;;;;;;;13.63;6.60;;;;;;;;;;5037546;28;20186;-74
2024/01/13 01:48:13;;;;;;;11.37;6.57;;;;;;;;;;5039666;28;20217;-74
2024/01/13 01:50:39;;;;;;;8.53;5.67;;;;;;;;;;5042332;28;20181;-74
2024/01/13 01:53:05;;;;;;;11.53;6.13;;;;;;;;;;5035252;28;20192;-74
2024/01/13 01:55:30;;;;;;;11.80;5.97;;;;;;;;;;5039679;28;20347;-75
2024/01/13 01:57:58;;;;;;;9.30;5.70;;;;;;;;;;5042359;28;20186;-74
2024/01/13 02:00:24;;;;;;;11.07;6.20;;;;;;;;;;5047360;28;20178;-74
2024/01/13 02:02:49;;;;;;;11.27;6.00;;;;;;;;;;5032720;28;20724;-74
2024/01/13 02:05:15;;;;;;;8.27;5.17;;;;;;;;;;5028571;28;20197;-74
2024/01/13 02:07:41;;;;;;;8.33;5.23;;;;;;;;;;5048715;28;20272;-74
2024/01/13 02:10:07;;;;;;;9.70;5.47;;;;;;;;;;5035820;28;20256;-74
2024/01/13 02:12:32;;;;;;;9.67;5.10;;;;;;;;;;5049719;28;20348;-74
2024/01/13 02:14:58;;;;;;;10.00;5.63;;;;;;;;;;5024969;28;20229;-74
2024/01/13 02:17:23;;;;;;;9.97;5.57;;;;;;;;;;5020473;28;20716;-74
2024/01/13 02:19:49;;;;;;;7.93;5.10;;;;;;;;;;5042622;28;20257;-74
2024/01/13 02:22:14;;;;;;;12.57;6.13;;;;;;;;;;5046390;28;20174;-74
2024/01/13 02:24:40;;;;;;;9.93;5.63;;;;;;;;;;5043439;28;20193;-75
2024/01/13 02:27:05;;;;;;;13.13;6.50;;;;;;;;;;5040847;28;20192;-74
2024/01/13 02:29:30;;;;;;;13.77;7.00;;;;;;;;;;5047797;28;20584;-74
2024/01/13 02:31:56;;;;;;;10.33;6.37;;;;;;;;;;5026414;28;20589;-74
2024/01/13 02:34:21;;;;;;;10.73;6.63;;;;;;;;;;5036939;28;20193;-74
2024/01/13 02:36:46;;;;;;;10.33;6.03;;;;;;;;;;5039502;28;20301;-74
2024/01/13 02:39:12;;;;;;;10.40;6.50;;;;;;;;;;5039441;28;20186;-74
2024/01/13 02:41:37;;;;;;;13.47;7.57;;;;;;;;;;5044073;28;20190;-74
2024/01/13 02:44:03;;;;;;;13.50;7.57;;;;;;;;;;5040086;28;20187;-74
2024/01/13 02:46:28;;;;;;;14.23;7.67;;;;;;;;;;5040243;28;20180;-74
2024/01/13 02:48:56;;;;;;;13.87;7.93;;;;;;;;;;5041895;28;20240;-74
2024/01/13 02:51:21;;;;;;;12.47;7.83;;;;;;;;;;5033644;28;20201;-74
2024/01/13 02:53:46;;;;;;;13.37;7.83;;;;;;;;;;5044173;28;20182;-74
2024/01/13 02:56:12;;;;;;;16.23;8.90;;;;;;;;;;5035056;28;20209;-74
2024/01/13 02:58:38;;;;;;;16.57;8.77;;;;;;;;;;5020162;28;20197;-74
2024/01/13 03:01:06;;;;;;;17.63;8.97;;;;;;;;;;5042201;28;20193;-74
2024/01/13 03:03:36;;;;;;;15.47;8.67;;;;;;;;;;5032353;28;20653;-74
2024/01/13 03:06:04;;;;;;;13.13;8.37;;;;;;;;;;5035869;28;20704;-74
2024/01/13 03:08:29;;;;;;;14.80;9.00;;;;;;;;;;5041756;28;20653;-74
2024/01/13 03:10:55;;;;;;;14.43;8.47;;;;;;;;;;5034437;28;20185;-74
2024/01/13 03:13:20;;;;;;;17.03;9.30;;;;;;;;;;5035757;28;20177;-74
2024/01/13 03:15:46;;;;;;;18.10;8.83;;;;;;;;;;5048328;28;20308;-74
2024/01/13 03:18:11;;;;;;;19.97;9.37;;;;;;;;;;5040630;28;20214;-74
2024/01/13 03:20:37;;;;;;;15.83;9.03;;;;;;;;;;5046099;28;20205;-74
2024/01/13 03:23:02;;;;;;;14.07;9.10;;;;;;;;;;5035624;28;20197;-75
2024/01/13 03:25:28;;;;;;;14.63;8.93;;;;;;;;;;5041591;28;20182;-74
2024/01/13 03:27:53;;;;;;;15.67;8.67;;;;;;;;;;5045314;28;20198;-74
2024/01/13 03:30:18;;;;;;;14.53;8.27;;;;;;;;;;5042368;28;20327;-74
2024/01/13 03:32:44;;;;;;;16.13;9.53;;;;;;;;;;5039528;28;20201;-74
2024/01/13 03:35:10;;;;;;;16.90;8.97;;;;;;;;;;5039475;28;20201;-74
2024/01/13 03:37:35;;;;;;;18.10;9.43;;;;;;;;;;5042934;28;20267;-74
2024/01/13 03:40:01;;;;;;;16.10;9.50;;;;;;;;;;5040426;28;20204;-74
2024/01/13 03:42:26;;;;;;;17.97;9.73;;;;;;;;;;5046800;28;20200;-74
2024/01/13 03:44:51;;;;;;;20.70;10.10;;;;;;;;;;5033204;28;20572;-74
2024/01/13 03:47:17;;;;;;;19.90;10.73;;;;;;;;;;5049120;28;20334;-74
2024/01/13 03:49:42;;;;;;;24.33;12.50;;;;;;;;;;5051878;28;20701;-74
2024/01/13 03:52:08;;;;;;;25.70;12.10;;;;;;;;;;5041020;28;20190;-74
2024/01/13 03:54:33;;;;;;;27.20;13.60;;;;;;;;;;5044618;28;20190;-74
2024/01/13 03:56:58;;;;;;;24.33;13.33;;;;;;;;;;5040362;28;20288;-74
2024/01/13 03:59:24;;;;;;;27.77;14.03;;;;;;;;;;5021833;28;20731;-74
2024/01/13 04:01:49;;;;;;;28.17;14.77;;;;;;;;;;5045836;28;20212;-74
2024/01/13 04:04:15;;;;;;;28.23;14.83;;;;;;;;;;5050523;28;20623;-74
2024/01/13 04:06:40;;;;;;;31.03;15.40;;;;;;;;;;5036504;28;20259;-74
2024/01/13 04:09:06;;;;;;;30.63;14.60;;;;;;;;;;5041196;28;20186;-74
2024/01/13 04:11:32;;;;;;;29.47;15.30;;;;;;;;;;5046143;28;20190;-75
2024/01/13 04:13:57;;;;;;;27.67;14.80;;;;;;;;;;5044519;28;20914;-74
2024/01/13 04:16:23;;;;;;;31.57;15.83;;;;;;;;;;5049294;28;20383;-74
2024/01/13 04:18:48;;;;;;;30.47;15.30;;;;;;;;;;5054218;28;20680;-74
2024/01/13 04:21:13;;;;;;;29.37;15.90;;;;;;;;;;5040626;28;20185;-74
2024/01/13 04:23:39;;;;;;;33.73;16.07;;;;;;;;;;5043474;28;20637;-74
2024/01/13 04:26:05;;;;;;;29.07;15.23;;;;;;;;;;5034348;28;20178;-74
2024/01/13 04:28:31;;;;;;;31.37;15.87;;;;;;;;;;5040363;28;20202;-74
2024/01/13 04:30:56;;;;;;;31.10;16.07;;;;;;;;;;5044320;28;20532;-74
2024/01/13 04:33:22;;;;;;;32.20;16.63;;;;;;;;;;5027907;28;20284;-74
2024/01/13 04:35:47;;;;;;;36.73;16.23;;;;;;;;;;5038656;28;20652;-75
2024/01/13 04:38:13;;;;;;;34.37;16.57;;;;;;;;;;5054017;28;20662;-74
2024/01/13 04:40:38;;;;;;;34.00;16.80;;;;;;;;;;5038617;28;20194;-74
2024/01/13 04:43:04;;;;;;;34.30;17.13;;;;;;;;;;5045128;28;20204;-74
2024/01/13 04:45:30;;;;;;;34.70;17.10;;;;;;;;;;5048562;28;20208;-74
2024/01/13 04:47:56;;;;;;;33.27;16.83;;;;;;;;;;5046567;28;20714;-74
2024/01/13 04:50:22;;;;;;;32.90;15.90;;;;;;;;;;5034700;28;20198;-74
2024/01/13 04:52:47;;;;;;;32.80;17.03;;;;;;;;;;5036253;28;20186;-75
2024/01/13 04:55:13;;;;;;;31.97;17.20;;;;;;;;;;5044908;28;20194;-75
2024/01/13 04:57:38;;;;;;;35.87;17.10;;;;;;;;;;5039317;28;20194;-74
2024/01/13 05:00:07;;;;;;;31.93;16.77;;;;;;;;;;5043717;28;20219;-74
2024/01/13 05:02:33;;;;;;;34.40;17.70;;;;;;;;;;5036645;28;20668;-74
2024/01/13 05:04:58;;;;;;;30.47;16.13;;;;;;;;;;5023367;28;20281;-75
2024/01/13 05:07:24;;;;;;;36.20;17.03;;;;;;;;;;5045025;28;20226;-75
2024/01/13 05:09:50;;;;;;;29.77;17.20;;;;;;;;;;5038001;28;20194;-74
2024/01/13 05:12:15;;;;;;;34.57;17.73;;;;;;;;;;5045531;28;20189;-75
2024/01/13 05:14:41;;;;;;;33.87;17.87;;;;;;;;;;5044739;28;20308;-75
2024/01/13 05:17:06;;;;;;;40.43;18.87;;;;;;;;;;5040821;28;20319;-75
2024/01/13 05:19:32;;;;;;;32.83;17.60;;;;;;;;;;5032117;28;20564;-75
2024/01/13 05:21:58;;;;;;;34.27;17.80;;;;;;;;;;5038534;28;20229;-75
2024/01/13 05:24:23;;;;;;;29.37;15.93;;;;;;;;;;5031756;28;20287;-75
2024/01/13 05:26:49;;;;;;;32.13;16.73;;;;;;;;;;5049702;28;20599;-75
2024/01/13 05:29:14;;;;;;;33.13;16.23;;;;;;;;;;5049727;28;20217;-75
2024/01/13 05:31:42;;;;;;;37.63;18.60;;;;;;;;;;5041501;28;20200;-75
2024/01/13 05:34:07;;;;;;;30.07;17.03;;;;;;;;;;5029944;28;20620;-75
2024/01/13 05:36:32;;;;;;;32.00;17.13;;;;;;;;;;5044374;28;20245;-75
2024/01/13 05:38:58;;;;;;;29.87;16.37;;;;;;;;;;5041068;28;20535;-75
2024/01/13 05:41:23;;;;;;;30.43;16.60;;;;;;;;;;5046776;28;20193;-75
2024/01/13 05:43:49;;;;;;;33.83;17.30;;;;;;;;;;5035441;28;20547;-75
2024/01/13 05:46:14;;;;;;;32.63;18.10;;;;;;;;;;5046130;28;20195;-75
2024/01/13 05:48:40;;;;;;;39.03;17.30;;;;;;;;;;5049240;28;20208;-75
2024/01/13 05:51:06;;;;;;;36.87;18.53;;;;;;;;;;5044108;28;20251;-75
2024/01/13 05:53:32;;;;;;;36.70;19.20;;;;;;;;;;5046977;28;20265;-75
2024/01/13 05:55:57;;;;;;;36.43;17.73;;;;;;;;;;5035034;28;20609;-75
2024/01/13 05:58:23;;;;;;;33.27;17.57;;;;;;;;;;5040535;28;20182;-75
2024/01/13 06:00:49;;;;;;;29.60;16.23;;;;;;;;;;5035985;28;20277;-75
2024/01/13 06:03:14;;;;;;;34.60;18.03;;;;;;;;;;5035655;28;20679;-75
2024/01/13 06:05:40;;;;;;;33.43;17.93;;;;;;;;;;5028583;28;20193;-75
2024/01/13 06:08:05;;;;;;;34.67;17.63;;;;;;;;;;5044650;28;20218;-75
2024/01/13 06:10:31;;;;;;;38.03;18.90;;;;;;;;;;5048054;28;20624;-75
2024/01/13 06:12:57;;;;;;;32.70;17.30;;;;;;;;;;5045781;28;20193;-74
2024/01/13 06:15:23;;;;;;;34.40;18.73;;;;;;;;;;5048817;28;20708;-74
2024/01/13 06:17:49;;;;;;;36.30;19.50;;;;;;;;;;5033637;28;20300;-74
2024/01/13 06:20:14;;;;;;;36.83;19.23;;;;;;;;;;5045517;28;20209;-74
2024/01/13 06:22:40;;;;;;;37.37;19.90;;;;;;;;;;5040592;28;20561;-74
2024/01/13 06:25:06;;;;;;;36.13;18.63;;;;;;;;;;5038229;28;20244;-74
2024/01/13 06:27:31;;;;;;;35.43;18.67;;;;;;;;;;5046210;28;20181;-74
2024/01/13 06:29:57;;;;;;;35.87;18.37;;;;;;;;;;5036017;28;20185;-75
2024/01/13 06:32:22;;;;;;;35.40;18.40;;;;;;;;;;5034263;28;20675;-74
2024/01/13 06:34:48;;;;;;;33.80;18.00;;;;;;;;;;5044292;28;20216;-74
2024/01/13 06:37:13;;;;;;;33.37;18.00;;;;;;;;;;5041723;28;20255;-74
2024/01/13 06:39:39;;;;;;;34.63;18.53;;;;;;;;;;5035326;28;20194;-75
2024/01/13 06:42:06;;;;;;;32.27;18.10;;;;;;;;;;5036933;28;20186;-75
2024/01/13 06:44:33;;;;;;;32.67;17.53;;;;;;;;;;5041414;28;20186;-75
2024/01/13 06:46:58;;;;;;;31.43;17.13;;;;;;;;;;5027005;28;20649;-74
2024/01/13 06:49:24;;;;;;;27.90;15.87;;;;;;;;;;5041064;28;20205;-74
2024/01/13 06:51:49;;;;;;;30.53;15.90;;;;;;;;;;5049189;28;20201;-74
2024/01/13 06:54:15;;;;;;;30.73;15.70;;;;;;;;;;5045919;28;20190;-74
2024/01/13 06:56:41;;;;;;;28.70;16.07;;;;;;;;;;5044134;28;20564;-74
2024/01/13 06:59:07;;;;;;;27.37;14.17;;;;;;;;;;5030456;28;20189;-74
2024/01/13 07:01:33;;;;;;;27.87;15.20;;;;;;;;;;5032270;28;20608;-74
2024/01/13 07:03:58;;;;;;;26.83;13.97;;;;;;;;;;5041966;28;20192;-74
2024/01/13 07:06:24;;;;;;;24.17;12.97;;;;;;;;;;5038230;28;20234;-74
2024/01/13 07:08:49;;;;;;;21.87;12.13;;;;;;;;;;5048848;28;20222;-74
2024/01/13 07:11:15;;;;;;;22.43;12.63;;;;;;;;;;5046163;28;20185;-74
2024/01/13 07:13:44;;;;;;;25.90;13.17;;;;;;;;;;5043334;28;20194;-74
2024/01/13 07:16:10;;;;;;;21.77;11.83;;;;;;;;;;5027289;28;20275;-74
2024/01/13 07:18:36;;;;;;;23.13;11.73;;;;;;;;;;5027782;28;20288;-74
2024/01/13 07:21:01;;;;;;;23.77;11.73;;;;;;;;;;5043940;28;20713;-74
2024/01/13 07:23:28;;;;;;;22.57;12.13;;;;;;;;;;5041013;28;20181;-74
2024/01/13 07:25:54;;;;;;;22.63;11.20;;;;;;;;;;5042487;28;20190;-74
2024/01/13 07:28:20;;;;;;;24.37;11.87;;;;;;;;;;5011325;28;20236;-74
2024/01/13 07:30:46;;;;;;;21.63;11.30;;;;;;;;;;5040442;28;20556;-74
2024/01/13 07:33:12;;;;;;;21.87;11.37;;;;;;;;;;5028657;28;20190;-74
2024/01/13 07:35:37;;;;;;;22.70;11.37;;;;;;;;;;5033608;28;20214;-74
2024/01/13 07:38:03;;;;;;;22.90;12.37;;;;;;;;;;5031305;28;20197;-74
2024/01/13 07:40:28;;;;;;;25.77;12.23;;;;;;;;;;5043812;28;20185;-74
2024/01/13 07:42:54;;;;;;;25.93;12.33;;;;;;;;;;5034959;28;20194;-74
2024/01/13 07:45:20;;;;;;;25.17;12.93;;;;;;;;;;5034865;28;20221;-74
2024/01/13 07:47:46;;;;;;;25.93;12.83;;;;;;;;;;5027364;28;20269;-74
2024/01/13 07:50:11;;;;;;;34.73;15.43;;;;;;;;;;5041107;28;20273;-74
2024/01/13 07:52:37;;;;;;;30.93;14.73;;;;;;;;;;5037621;28;20185;-74
2024/01/13 07:55:03;;;;;;;26.23;13.40;;;;;;;;;;5036443;28;20185;-74
2024/01/13 07:57:29;;;;;;;27.27;13.17;;;;;;;;;;5028845;28;20581;-74
2024/01/13 07:59:55;;;;;;;28.30;13.37;;;;;;;;;;5013667;28;20174;-74
2024/01/13 08:02:21;;;;;;;26.20;12.50;;;;;;;;;;5033644;28;20185;-75
2024/01/13 08:04:46;;;;;;;23.63;11.30;;;;;;;;;;5034497;28;20190;-74
2024/01/13 08:07:12;;;;;;;25.43;12.47;;;;;;;;;;5043333;28;20301;-74
2024/01/13 08:09:38;;;;;;;25.23;11.10;;;;;;;;;;5034707;28;20192;-74
2024/01/13 08:12:04;;;;;;;28.47;13.23;;;;;;;;;;5037620;28;20198;-74
2024/01/13 08:14:29;;;;;;;27.27;12.00;;;;;;;;;;5029975;28;20213;-74
2024/01/13 08:16:55;;;;;;;29.90;13.43;;;;;;;;;;5030797;28;20202;-74
2024/01/13 08:19:22;;;;;;;28.63;13.47;;;;;;;;;;5037281;28;20213;-74
2024/01/13 08:21:49;;;;;;;25.77;12.33;;;;;;;;;;5037235;28;20185;-74
2024/01/13 08:24:14;;;;;;;27.30;12.70;;;;;;;;;;5026158;28;20541;-74
2024/01/13 08:26:41;;;;;;;25.37;12.13;;;;;;;;;;5032837;28;20273;-74
2024/01/13 08:29:07;;;;;;;26.63;11.97;;;;;;;;;;5038789;28;20198;-75
2024/01/13 08:31:32;;;;;;;29.93;13.20;;;;;;;;;;5041067;28;20668;-74
2024/01/13 08:33:57;;;;;;;24.47;12.60;;;;;;;;;;5043052;28;20296;-74
2024/01/13 08:36:23;;;;;;;26.10;12.93;;;;;;;;;;5049741;28;20213;-75
2024/01/13 08:38:48;;;;;;;28.33;13.73;;;;;;;;;;5057040;28;20555;-75
2024/01/13 08:41:14;;;;;;;27.60;13.20;;;;;;;;;;5037804;28;20198;-74
2024/01/13 08:43:40;;;;;;;25.17;12.30;;;;;;;;;;5040249;28;20212;-74
2024/01/13 08:46:07;;;;;;;26.60;12.17;;;;;;;;;;5047586;28;20181;-74
2024/01/13 08:48:32;;;;;;;25.63;12.40;;;;;;;;;;5042114;28;20252;-74
2024/01/13 08:50:57;;;;;;;26.23;12.83;;;;;;;;;;5031019;28;20186;-74
2024/01/13 08:53:23;;;;;;;25.63;12.40;;;;;;;;;;5045627;28;20690;-74
2024/01/13 08:55:48;;;;;;;26.83;12.00;;;;;;;;;;5030107;28;20217;-74
2024/01/13 08:58:14;;;;;;;27.10;12.73;;;;;;;;;;5045095;28;20213;-74
2024/01/13 09:00:39;;;;;;;26.10;12.80;;;;;;;;;;5050498;28;20273;-74
2024/01/13 09:03:04;;;;;;;29.30;12.57;;;;;;;;;;5048003;28;20307;-75
2024/01/13 09:05:30;;;;;;;30.40;13.77;;;;;;;;;;5046399;28;20198;-75
2024/01/13 09:07:57;;;;;;;26.77;13.03;;;;;;;;;;5037479;28;20190;-76
2024/01/13 09:10:22;;;;;;;28.27;13.47;;;;;;;;;;5033574;28;20296;-75
2024/01/13 09:12:47;;;;;;;27.77;13.80;;;;;;;;;;5042824;28;20630;-75
2024/01/13 09:15:13;;;;;;;23.27;13.23;;;;;;;;;;5048283;28;20355;-75
2024/01/13 09:17:39;;;;;;;28.23;14.23;;;;;;;;;;5038938;28;20300;-75
2024/01/13 09:20:05;;;;;;;29.70;12.67;;;;;;;;;;5042019;28;20194;-75
2024/01/13 09:22:30;;;;;;;28.20;13.73;;;;;;;;;;5037306;28;20604;-75
2024/01/13 09:24:56;;;;;;;23.67;12.20;;;;;;;;;;5046443;28;20193;-75
2024/01/13 09:27:22;;;;;;;21.37;12.40;;;;;;;;;;5045328;28;20586;-75
2024/01/13 09:29:47;;;;;;;22.60;13.10;;;;;;;;;;5033456;28;20235;-75
2024/01/13 09:32:13;;;;;;;23.53;12.23;;;;;;;;;;5030134;28;20264;-75
2024/01/13 09:34:38;;;;;;;21.67;10.70;;;;;;;;;;5024278;28;20186;-75
2024/01/13 09:37:04;;;;;;;20.30;11.37;;;;;;;;;;5033274;28;20681;-74
2024/01/13 09:39:29;;;;;;;21.20;10.77;;;;;;;;;;5043454;28;20186;-75
2024/01/13 09:41:55;;;;;;;18.50;10.93;;;;;;;;;;5033223;28;20676;-75
2024/01/13 09:44:26;;;;;;;24.03;11.67;;;;;;;;;;5031872;28;20182;-75
2024/01/13 09:46:54;;;;;;;24.87;11.10;;;;;;;;;;5043715;28;20208;-75
2024/01/13 09:49:20;;;;;;;24.23;11.83;;;;;;;;;;5044298;28;20189;-75
2024/01/13 09:51:46;;;;;;;22.87;12.13;;;;;;;;;;5035681;28;20295;-75
2024/01/13 09:54:19;;;;;;;20.03;12.10;;;;;;;;;;5042547;28;20184;-76
2024/01/13 09:56:46;;;;;;;18.67;11.60;;;;;;;;;;5044509;28;20295;-75
2024/01/13 09:59:12;;;;;;;23.13;11.93;;;;;;;;;;5026304;28;20280;-75
2024/01/13 10:01:38;;;;;;;21.50;11.43;;;;;;;;;;5048236;28;20260;-75
2024/01/13 10:04:04;;;;;;;22.00;10.60;;;;;;;;;;5036495;28;20277;-75
2024/01/13 10:06:32;;;;;;;19.67;11.67;;;;;;;;;;5018798;28;20675;-75
2024/01/13 10:08:57;;;;;;;22.90;12.13;;;;;;;;;;5045162;28;20197;-75
2024/01/13 10:11:23;;;;;;;23.53;11.60;;;;;;;;;;5032898;28;20194;-75
2024/01/13 10:14:11;;;;;;;20.67;11.57;;;;;;;;;;5041490;28;20738;-75
2024/01/13 10:16:37;;;;;;;18.13;10.07;;;;;;;;;;5029408;28;20633;-75
2024/01/13 10:19:06;;;;;;;19.63;11.67;;;;;;;;;;5043861;28;20213;-75
2024/01/13 10:21:32;;;;;;;19.57;11.77;;;;;;;;;;5033728;28;20277;-75
2024/01/13 10:24:00;;;;;;;21.90;11.70;;;;;;;;;;5043203;28;20221;-75
2024/01/13 10:26:27;;;;;;;22.33;11.40;;;;;;;;;;5025974;28;20174;-75
2024/01/13 10:28:55;;;;;;;19.33;12.00;;;;;;;;;;5042881;28;20220;-75
2024/01/13 10:31:20;;;;;;;19.33;10.70;;;;;;;;;;5043879;28;20204;-75
2024/01/13 10:33:49;;;;;;;24.20;11.80;;;;;;;;;;5041122;28;20216;-75
2024/01/13 10:36:20;;;;;;;24.10;12.50;;;;;;;;;;5042309;28;20222;-75
2024/01/13 10:38:45;;;;;;;22.77;11.90;;;;;;;;;;5042083;28;20189;-75
2024/01/13 10:41:11;;;;;;;24.23;12.50;;;;;;;;;;5042431;28;20185;-75
2024/01/13 10:43:41;;;;;;;21.30;12.67;;;;;;;;;;5039833;28;20189;-75
2024/01/13 10:46:22;;;;;;;25.27;12.47;;;;;;;;;;5020966;28;20170;-75
2024/01/13 10:48:50;;;;;;;26.00;13.90;;;;;;;;;;5035243;28;20319;-75
2024/01/13 10:51:39;;;;;;;25.07;13.13;;;;;;;;;;5045161;28;20174;-75
2024/01/13 10:54:07;;;;;;;32.57;14.07;;;;;;;;;;5032703;28;20201;-75
2024/01/13 10:56:35;;;;;;;27.80;14.70;;;;;;;;;;5046132;28;20251;-75
2024/01/13 10:59:01;;;;;;;29.63;15.23;;;;;;;;;;5023658;28;20327;-75
2024/01/13 11:01:27;;;;;;;30.87;15.93;;;;;;;;;;5032485;28;20186;-75
2024/01/13 11:03:57;;;;;;;28.33;15.40;;;;;;;;;;5024306;28;20653;-75
2024/01/13 11:06:23;;;;;;;33.63;16.57;;;;;;;;;;5026655;28;20637;-75
2024/01/13 11:08:51;;;;;;;28.43;15.70;;;;;;;;;;5039404;28;20240;-75
2024/01/13 11:11:26;;;;;;;29.70;15.80;;;;;;;;;;5032798;28;20197;-75
2024/01/13 11:14:03;;;;;;;29.40;15.20;;;;;;;;;;5047492;28;20272;-75
2024/01/13 11:16:30;;;;;;;32.27;16.30;;;;;;;;;;5037337;28;20669;-75
2024/01/13 11:18:57;;;;;;;30.47;15.87;;;;;;;;;;5030978;28;20702;-75
2024/01/13 11:21:32;;;;;;;29.93;16.03;;;;;;;;;;5031903;28;20197;-75
2024/01/13 11:23:58;;;;;;;33.63;16.33;;;;;;;;;;5033106;28;20197;-75
2024/01/13 11:26:45;;;;;;;32.30;16.07;;;;;;;;;;5031488;28;20230;-75
2024/01/13 11:29:23;;;;;;;31.70;16.73;;;;;;;;;;5029483;28;20196;-75
2024/01/13 11:31:57;;;;;;;35.20;18.10;;;;;;;;;;5030845;28;20452;-75
2024/01/13 11:34:23;;;;;;;39.83;18.10;;;;;;;;;;5037913;28;20200;-75
2024/01/13 11:36:55;;;;;;;36.87;18.80;;;;;;;;;;5040739;28;20205;-75
2024/01/13 11:39:21;;;;;;;40.07;18.70;;;;;;;;;;5036535;28;20201;-75
2024/01/13 11:41:49;;;;;;;34.43;18.40;;;;;;;;;;5039967;28;20190;-75
2024/01/13 11:44:25;;;;;;;36.20;19.47;;;;;;;;;;5032046;28;20730;-75
2024/01/13 11:47:08;;;;;;;47.67;21.37;;;;;;;;;;5034099;28;20280;-75
2024/01/13 11:49:41;;;;;;;37.83;20.27;;;;;;;;;;5035029;28;20190;-74
2024/01/13 11:52:09;;;;;;;43.53;20.17;;;;;;;;;;5037255;28;20190;-75
2024/01/13 11:54:36;;;;;;;40.97;20.67;;;;;;;;;;5052209;28;20192;-75
2024/01/13 11:57:09;;;;;;;42.43;21.13;;;;;;;;;;5040876;28;20266;-75
2024/01/13 11:59:35;;;;;;;41.87;21.47;;;;;;;;;;5034687;28;20188;-75
2024/01/13 12:02:01;;;;;;;41.40;20.87;;;;;;;;;;5039272;28;21299;-75
2024/01/13 12:04:31;;;;;;;41.23;21.47;;;;;;;;;;5035718;28;20621;-74
2024/01/13 12:06:57;;;;;;;42.57;21.83;;;;;;;;;;5048432;28;20264;-74
2024/01/13 12:09:27;;;;;;;45.93;22.77;;;;;;;;;;5041455;28;20320;-75
2024/01/13 12:11:58;;;;;;;45.33;22.70;;;;;;;;;;5043106;28;20193;-75
2024/01/13 12:14:29;;;;;;;42.93;22.23;;;;;;;;;;5044981;28;20229;-74
2024/01/13 12:16:55;;;;;;;44.93;22.97;;;;;;;;;;5049763;28;20290;-75
2024/01/13 12:19:25;;;;;;;44.20;22.37;;;;;;;;;;5048846;28;20221;-75
2024/01/13 12:21:50;;;;;;;48.50;23.30;;;;;;;;;;5042794;28;20201;-75
2024/01/13 12:24:16;;;;;;;47.83;23.80;;;;;;;;;;5051323;28;20610;-75
2024/01/13 12:26:42;;;;;;;42.57;23.20;;;;;;;;;;5047799;28;20183;-74
2024/01/13 12:29:08;;;;;;;41.63;22.30;;;;;;;;;;5046493;28;20193;-75
2024/01/13 12:31:34;;;;;;;49.00;24.20;;;;;;;;;;5032594;28;20186;-75
2024/01/13 12:34:10;;;;;;;46.07;24.47;;;;;;;;;;5033469;28;20196;-75
2024/01/13 12:36:37;;;;;;;46.83;23.70;;;;;;;;;;5047098;28;20225;-74
2024/01/13 12:39:02;;;;;;;45.97;23.20;;;;;;;;;;5036734;28;20189;-76
2024/01/13 12:41:28;;;;;;;45.43;23.00;;;;;;;;;;5041705;28;20555;-74
2024/01/13 12:43:54;;;;;;;44.57;23.47;;;;;;;;;;5047487;28;20220;-74
2024/01/13 12:46:19;;;;;;;43.90;23.23;;;;;;;;;;5043124;28;20190;-75
2024/01/13 12:48:45;;;;;;;43.03;23.00;;;;;;;;;;5032465;28;20206;-75
2024/01/13 12:51:14;;;;;;;46.93;23.80;;;;;;;;;;5037484;28;20859;-75
2024/01/13 12:53:45;;;;;;;39.73;23.40;;;;;;;;;;5041574;28;20215;-75
2024/01/13 12:56:11;;;;;;;45.63;23.83;;;;;;;;;;5036979;28;20603;-74
2024/01/13 12:58:36;;;;;;;46.63;24.33;;;;;;;;;;5047781;28;20200;-75
2024/01/13 13:01:04;;;;;;;41.90;22.43;;;;;;;;;;5049272;28;20615;-75
2024/01/13 13:03:29;;;;;;;40.73;22.43;;;;;;;;;;5044704;28;20580;-75
2024/01/13 13:05:54;;;;;;;41.97;23.13;;;;;;;;;;5035932;28;20293;-75
2024/01/13 13:08:20;;;;;;;39.83;21.57;;;;;;;;;;5029840;28;20269;-74
2024/01/13 13:10:46;;;;;;;41.63;22.17;;;;;;;;;;5039303;28;20188;-73
2024/01/13 13:13:11;;;;;;;43.53;22.80;;;;;;;;;;5042750;28;20217;-73
2024/01/13 13:15:36;;;;;;;44.43;24.00;;;;;;;;;;5042759;28;20278;-75
2024/01/13 13:18:02;;;;;;;44.23;24.10;;;;;;;;;;5045199;28;20655;-74
2024/01/13 13:20:27;;;;;;;45.90;23.73;;;;;;;;;;5038061;28;20278;-75
2024/01/13 13:22:53;;;;;;;44.30;23.13;;;;;;;;;;5045023;28;20178;-74
2024/01/13 13:25:19;;;;;;;43.50;24.33;;;;;;;;;;5035442;28;20217;-74
2024/01/13 13:27:45;;;;;;;43.10;23.67;;;;;;;;;;5043911;28;20205;-73
2024/01/13 13:30:10;;;;;;;47.47;24.27;;;;;;;;;;5039262;28;20185;-74
2024/01/13 13:32:37;;;;;;;50.60;24.90;;;;;;;;;;5049704;28;20717;-74
2024/01/13 13:35:04;;;;;;;43.13;23.77;;;;;;;;;;5038883;28;20569;-75
2024/01/13 13:37:29;;;;;;;42.87;23.67;;;;;;;;;;5041968;28;20220;-74
2024/01/13 13:39:55;;;;;;;43.47;23.73;;;;;;;;;;5034770;28;20190;-74
2024/01/13 13:42:20;;;;;;;52.47;27.30;;;;;;;;;;5042882;28;20190;-74
2024/01/13 13:44:46;;;;;;;47.97;24.63;;;;;;;;;;5039105;28;20186;-73
2024/01/13 13:47:11;;;;;;;46.03;25.77;;;;;;;;;;5043304;28;20189;-74
2024/01/13 13:49:37;;;;;;;49.93;26.03;;;;;;;;;;5039317;28;20240;-74
2024/01/13 13:52:02;;;;;;;44.60;25.57;;;;;;;;;;5041127;28;20186;-74
2024/01/13 13:54:28;;;;;;;49.67;25.47;;;;;;;;;;5045363;28;20776;-74
2024/01/13 13:56:54;;;;;;;51.20;26.53;;;;;;;;;;5042337;28;20209;-73
2024/01/13 13:59:19;;;;;;;44.97;24.93;;;;;;;;;;5028899;28;20556;-74
2024/01/13 14:01:44;;;;;;;45.27;25.37;;;;;;;;;;5024172;28;20210;-73
2024/01/13 14:04:11;;;;;;;49.77;26.27;;;;;;;;;;5015437;28;20182;-74
2024/01/13 14:06:37;;;;;;;49.47;25.23;;;;;;;;;;5016499;28;20685;-74
2024/01/13 14:09:04;;;;;;;48.67;24.67;;;;;;;;;;5015582;28;20194;-74
2024/01/13 14:11:33;;;;;;;45.73;25.00;;;;;;;;;;5040414;28;20190;-74
2024/01/13 14:13:58;;;;;;;47.77;25.33;;;;;;;;;;5040152;28;20253;-74
2024/01/13 14:16:24;;;;;;;48.80;25.37;;;;;;;;;;5045513;28;20838;-75